sensor_id;sensor_type;location;lat;lon;timestamp;temperature;humidity
22161;DHT22;49035;48.812;11.762;2022-11-04T00:01:46;8.60;99.90
22161;DHT22;49035;48.812;11.762;2022-11-04T00:04:13;8.60;99.90
22161;DHT22;49035;48.812;11.762;2022-11-04T00:06:39;8.60;99.90
22161;DHT22;49035;48.812;11.762;2022-11-04T00:09:07;8.50;99.90
22161;DHT22;49035;48.812;11.762;2022-11-04T00:11:33;8.50;99.90
22161;DHT22;49035;48.812;11.762;2022-11-04T00:14:17;8.60;99.90
22161;DHT22;49035;48.812;11.762;2022-11-04T00:16:43;8.60;99.90
22161;DHT22;49035;48.812;11.762;2022-11-04T00:19:27;8.60;99.90
22161;DHT22;49035;48.812;11.762;2022-11-04T00:21:54;8.60;99.90
22161;DHT22;49035;48.812;11.762;2022-11-04T00:24:38;8.60;99.90
22161;DHT22;49035;48.812;11.762;2022-11-04T00:27:10;8.60;99.90
22161;DHT22;49035;48.812;11.762;2022-11-04T00:29:55;8.70;99.90
22161;DHT22;49035;48.812;11.762;2022-11-04T00:32:20;8.70;99.90
22161;DHT22;49035;48.812;11.762;2022-11-04T00:35:05;8.70;99.90
22161;DHT22;49035;48.812;11.762;2022-11-04T00:37:31;8.80;99.90
22161;DHT22;49035;48.812;11.762;2022-11-04T00:39:56;8.80;99.90
22161;DHT22;49035;48.812;11.762;2022-11-04T00:42:22;8.80;99.90
22161;DHT22;49035;48.812;11.762;2022-11-04T00:44:47;8.80;99.90
22161;DHT22;49035;48.812;11.762;2022-11-04T00:47:13;8.70;99.90
22161;DHT22;49035;48.812;11.762;2022-11-04T00:49:38;8.80;99.90
22161;DHT22;49035;48.812;11.762;2022-11-04T00:52:04;8.80;99.90
22161;DHT22;49035;48.812;11.762;2022-11-04T00:54:30;8.80;99.90
22161;DHT22;49035;48.812;11.762;2022-11-04T00:56:55;8.80;99.90
22161;DHT22;49035;48.812;11.762;2022-11-04T00:59:21;8.80;99.90
22161;DHT22;49035;48.812;11.762;2022-11-04T01:01:46;8.80;99.90
22161;DHT22;49035;48.812;11.762;2022-11-04T01:04:12;8.80;99.90
22161;DHT22;49035;48.812;11.762;2022-11-04T01:06:38;8.80;99.90
22161;DHT22;49035;48.812;11.762;2022-11-04T01:09:06;8.80;99.90
22161;DHT22;49035;48.812;11.762;2022-11-04T01:11:33;8.70;99.90
22161;DHT22;49035;48.812;11.762;2022-11-04T01:13:59;8.70;99.90
22161;DHT22;49035;48.812;11.762;2022-11-04T01:16:26;8.70;99.90
22161;DHT22;49035;48.812;11.762;2022-11-04T01:18:52;8.70;99.90
22161;DHT22;49035;48.812;11.762;2022-11-04T01:21:18;8.80;99.90
22161;DHT22;49035;48.812;11.762;2022-11-04T01:23:44;8.80;99.90
22161;DHT22;49035;48.812;11.762;2022-11-04T01:26:22;8.80;99.90
22161;DHT22;49035;48.812;11.762;2022-11-04T01:28:48;8.90;99.90
22161;DHT22;49035;48.812;11.762;2022-11-04T01:31:16;8.80;99.90
22161;DHT22;49035;48.812;11.762;2022-11-04T01:33:42;8.80;99.90
22161;DHT22;49035;48.812;11.762;2022-11-04T01:36:09;8.90;99.90
22161;DHT22;49035;48.812;11.762;2022-11-04T01:38:35;8.90;99.90
22161;DHT22;49035;48.812;11.762;2022-11-04T01:41:03;8.90;99.90
22161;DHT22;49035;48.812;11.762;2022-11-04T01:43:52;8.90;99.90
22161;DHT22;49035;48.812;11.762;2022-11-04T01:48:46;8.90;99.90
22161;DHT22;49035;48.812;11.762;2022-11-04T01:51:12;8.90;99.90
22161;DHT22;49035;48.812;11.762;2022-11-04T01:53:40;8.80;99.90
22161;DHT22;49035;48.812;11.762;2022-11-04T01:56:11;8.90;99.90
22161;DHT22;49035;48.812;11.762;2022-11-04T01:58:40;9.00;99.90
22161;DHT22;49035;48.812;11.762;2022-11-04T02:01:08;8.90;99.90
22161;DHT22;49035;48.812;11.762;2022-11-04T02:03:43;8.90;99.90
22161;DHT22;49035;48.812;11.762;2022-11-04T02:06:10;9.00;99.90
22161;DHT22;49035;48.812;11.762;2022-11-04T02:08:37;9.00;99.90
22161;DHT22;49035;48.812;11.762;2022-11-04T02:11:04;9.00;99.90
22161;DHT22;49035;48.812;11.762;2022-11-04T02:13:30;9.00;99.90
22161;DHT22;49035;48.812;11.762;2022-11-04T02:16:27;9.00;99.90
22161;DHT22;49035;48.812;11.762;2022-11-04T02:30:49;9.00;99.90
22161;DHT22;49035;48.812;11.762;2022-11-04T02:33:28;8.90;99.90
22161;DHT22;49035;48.812;11.762;2022-11-04T02:36:03;8.90;99.90
22161;DHT22;49035;48.812;11.762;2022-11-04T02:46:36;8.80;99.90
22161;DHT22;49035;48.812;11.762;2022-11-04T02:49:25;8.80;99.90
22161;DHT22;49035;48.812;11.762;2022-11-04T02:51:54;8.80;99.90
22161;DHT22;49035;48.812;11.762;2022-11-04T02:54:50;8.90;99.90
22161;DHT22;49035;48.812;11.762;2022-11-04T02:57:26;8.80;99.90
22161;DHT22;49035;48.812;11.762;2022-11-04T03:00:06;8.80;99.90
22161;DHT22;49035;48.812;11.762;2022-11-04T03:02:36;8.80;99.90
22161;DHT22;49035;48.812;11.762;2022-11-04T03:05:05;8.70;99.90
22161;DHT22;49035;48.812;11.762;2022-11-04T03:07:36;8.70;99.90
22161;DHT22;49035;48.812;11.762;2022-11-04T03:10:12;8.60;99.90
22161;DHT22;49035;48.812;11.762;2022-11-04T03:12:46;8.60;99.90
22161;DHT22;49035;48.812;11.762;2022-11-04T03:15:24;8.60;99.90
22161;DHT22;49035;48.812;11.762;2022-11-04T03:20:24;8.60;99.90
22161;DHT22;49035;48.812;11.762;2022-11-04T03:22:52;8.70;99.90
22161;DHT22;49035;48.812;11.762;2022-11-04T03:25:27;8.70;99.90
22161;DHT22;49035;48.812;11.762;2022-11-04T03:30:23;8.80;99.90
22161;DHT22;49035;48.812;11.762;2022-11-04T03:33:11;8.70;99.90
22161;DHT22;49035;48.812;11.762;2022-11-04T03:35:41;8.70;99.90
22161;DHT22;49035;48.812;11.762;2022-11-04T03:38:07;8.70;99.90
22161;DHT22;49035;48.812;11.762;2022-11-04T03:40:32;8.70;99.90
22161;DHT22;49035;48.812;11.762;2022-11-04T03:45:26;8.60;99.90
22161;DHT22;49035;48.812;11.762;2022-11-04T03:47:52;8.60;99.90
22161;DHT22;49035;48.812;11.762;2022-11-04T03:50:24;8.50;99.90
22161;DHT22;49035;48.812;11.762;2022-11-04T03:52:51;8.50;99.90
22161;DHT22;49035;48.812;11.762;2022-11-04T03:55:17;8.50;99.90
22161;DHT22;49035;48.812;11.762;2022-11-04T03:58:23;8.50;99.90
22161;DHT22;49035;48.812;11.762;2022-11-04T04:01:02;8.40;99.90
22161;DHT22;49035;48.812;11.762;2022-11-04T04:03:33;8.50;99.90
22161;DHT22;49035;48.812;11.762;2022-11-04T04:06:17;8.60;99.90
22161;DHT22;49035;48.812;11.762;2022-11-04T04:08:58;8.60;99.90
22161;DHT22;49035;48.812;11.762;2022-11-04T04:11:54;8.60;99.90
22161;DHT22;49035;48.812;11.762;2022-11-04T04:14:28;8.60;99.90
22161;DHT22;49035;48.812;11.762;2022-11-04T04:19:56;8.60;99.90
22161;DHT22;49035;48.812;11.762;2022-11-04T04:22:26;8.60;99.90
22161;DHT22;49035;48.812;11.762;2022-11-04T04:24:55;8.60;99.90
22161;DHT22;49035;48.812;11.762;2022-11-04T04:27:42;8.60;99.90
22161;DHT22;49035;48.812;11.762;2022-11-04T04:30:10;8.70;99.90
22161;DHT22;49035;48.812;11.762;2022-11-04T04:32:40;8.70;99.90
22161;DHT22;49035;48.812;11.762;2022-11-04T04:35:08;8.80;99.90
22161;DHT22;49035;48.812;11.762;2022-11-04T04:37:53;8.70;99.90
22161;DHT22;49035;48.812;11.762;2022-11-04T04:40:23;8.70;99.90
22161;DHT22;49035;48.812;11.762;2022-11-04T04:43:14;8.70;99.90
22161;DHT22;49035;48.812;11.762;2022-11-04T04:45:59;8.70;99.90
22161;DHT22;49035;48.812;11.762;2022-11-04T04:48:26;8.70;99.90
22161;DHT22;49035;48.812;11.762;2022-11-04T04:50:53;8.60;99.90
22161;DHT22;49035;48.812;11.762;2022-11-04T04:53:21;8.50;99.90
22161;DHT22;49035;48.812;11.762;2022-11-04T04:55:47;8.40;99.90
22161;DHT22;49035;48.812;11.762;2022-11-04T04:58:12;8.40;99.90
22161;DHT22;49035;48.812;11.762;2022-11-04T05:00:38;8.40;99.90
22161;DHT22;49035;48.812;11.762;2022-11-04T05:03:03;8.40;99.90
22161;DHT22;49035;48.812;11.762;2022-11-04T05:05:29;8.40;99.90
22161;DHT22;49035;48.812;11.762;2022-11-04T05:07:55;8.40;99.90
22161;DHT22;49035;48.812;11.762;2022-11-04T05:10:27;8.30;99.90
22161;DHT22;49035;48.812;11.762;2022-11-04T05:12:53;8.30;99.90
22161;DHT22;49035;48.812;11.762;2022-11-04T05:15:37;8.30;99.90
22161;DHT22;49035;48.812;11.762;2022-11-04T05:18:03;8.30;99.90
22161;DHT22;49035;48.812;11.762;2022-11-04T05:20:29;8.40;99.90
22161;DHT22;49035;48.812;11.762;2022-11-04T05:22:57;8.40;99.90
22161;DHT22;49035;48.812;11.762;2022-11-04T05:25:22;8.40;99.90
22161;DHT22;49035;48.812;11.762;2022-11-04T05:27:48;8.40;99.90
22161;DHT22;49035;48.812;11.762;2022-11-04T05:30:14;8.40;99.90
22161;DHT22;49035;48.812;11.762;2022-11-04T05:32:39;8.40;99.90
22161;DHT22;49035;48.812;11.762;2022-11-04T05:35:05;8.40;99.90
22161;DHT22;49035;48.812;11.762;2022-11-04T05:37:31;8.40;99.90
22161;DHT22;49035;48.812;11.762;2022-11-04T05:39:59;8.40;99.90
22161;DHT22;49035;48.812;11.762;2022-11-04T05:42:25;8.50;99.90
22161;DHT22;49035;48.812;11.762;2022-11-04T05:44:53;8.50;99.90
22161;DHT22;49035;48.812;11.762;2022-11-04T05:47:19;8.60;99.90
22161;DHT22;49035;48.812;11.762;2022-11-04T05:49:44;8.60;99.90
22161;DHT22;49035;48.812;11.762;2022-11-04T05:52:10;8.70;99.90
22161;DHT22;49035;48.812;11.762;2022-11-04T05:54:36;8.70;99.90
22161;DHT22;49035;48.812;11.762;2022-11-04T05:57:04;8.70;99.90
22161;DHT22;49035;48.812;11.762;2022-11-04T05:59:29;8.80;99.90
22161;DHT22;49035;48.812;11.762;2022-11-04T06:01:55;8.80;99.90
22161;DHT22;49035;48.812;11.762;2022-11-04T06:04:20;8.90;99.90
22161;DHT22;49035;48.812;11.762;2022-11-04T06:06:46;8.90;99.90
22161;DHT22;49035;48.812;11.762;2022-11-04T06:09:12;8.90;99.90
22161;DHT22;49035;48.812;11.762;2022-11-04T06:11:38;8.80;99.90
22161;DHT22;49035;48.812;11.762;2022-11-04T06:14:04;8.80;99.90
22161;DHT22;49035;48.812;11.762;2022-11-04T06:16:29;8.80;99.90
22161;DHT22;49035;48.812;11.762;2022-11-04T06:18:55;8.80;99.90
22161;DHT22;49035;48.812;11.762;2022-11-04T06:21:26;8.80;99.90
22161;DHT22;49035;48.812;11.762;2022-11-04T06:23:53;8.80;99.90
22161;DHT22;49035;48.812;11.762;2022-11-04T06:26:21;8.80;99.90
22161;DHT22;49035;48.812;11.762;2022-11-04T06:28:47;8.70;99.90
22161;DHT22;49035;48.812;11.762;2022-11-04T06:31:14;8.70;99.90
22161;DHT22;49035;48.812;11.762;2022-11-04T06:33:41;8.60;99.90
22161;DHT22;49035;48.812;11.762;2022-11-04T06:36:08;8.60;99.90
22161;DHT22;49035;48.812;11.762;2022-11-04T06:38:35;8.60;99.90
22161;DHT22;49035;48.812;11.762;2022-11-04T06:41:06;8.60;99.90
22161;DHT22;49035;48.812;11.762;2022-11-04T06:43:32;8.60;99.90
22161;DHT22;49035;48.812;11.762;2022-11-04T06:45:59;8.60;99.90
22161;DHT22;49035;48.812;11.762;2022-11-04T06:48:27;8.60;99.90
22161;DHT22;49035;48.812;11.762;2022-11-04T06:50:55;8.50;99.90
22161;DHT22;49035;48.812;11.762;2022-11-04T06:53:21;8.60;99.90
22161;DHT22;49035;48.812;11.762;2022-11-04T06:55:47;8.60;99.90
22161;DHT22;49035;48.812;11.762;2022-11-04T06:58:12;8.60;99.90
22161;DHT22;49035;48.812;11.762;2022-11-04T07:00:38;8.50;99.90
22161;DHT22;49035;48.812;11.762;2022-11-04T07:03:03;8.50;99.90
22161;DHT22;49035;48.812;11.762;2022-11-04T07:05:32;8.50;99.90
22161;DHT22;49035;48.812;11.762;2022-11-04T07:07:57;8.60;99.90
22161;DHT22;49035;48.812;11.762;2022-11-04T07:10:23;8.60;99.90
22161;DHT22;49035;48.812;11.762;2022-11-04T07:12:48;8.70;99.90
22161;DHT22;49035;48.812;11.762;2022-11-04T07:15:14;8.70;99.90
22161;DHT22;49035;48.812;11.762;2022-11-04T07:17:39;8.60;99.90
22161;DHT22;49035;48.812;11.762;2022-11-04T07:20:05;8.60;99.90
22161;DHT22;49035;48.812;11.762;2022-11-04T07:22:31;8.60;99.90
22161;DHT22;49035;48.812;11.762;2022-11-04T07:24:57;8.60;99.90
22161;DHT22;49035;48.812;11.762;2022-11-04T07:27:23;8.70;99.90
22161;DHT22;49035;48.812;11.762;2022-11-04T07:29:48;8.70;99.90
22161;DHT22;49035;48.812;11.762;2022-11-04T07:32:14;8.70;99.90
22161;DHT22;49035;48.812;11.762;2022-11-04T07:34:40;8.70;99.90
22161;DHT22;49035;48.812;11.762;2022-11-04T07:37:05;8.60;99.90
22161;DHT22;49035;48.812;11.762;2022-11-04T07:39:31;8.60;99.90
22161;DHT22;49035;48.812;11.762;2022-11-04T07:41:57;8.60;99.90
22161;DHT22;49035;48.812;11.762;2022-11-04T07:44:22;8.60;99.90
22161;DHT22;49035;48.812;11.762;2022-11-04T07:46:48;8.70;99.90
22161;DHT22;49035;48.812;11.762;2022-11-04T07:49:14;8.60;99.90
22161;DHT22;49035;48.812;11.762;2022-11-04T07:51:40;8.70;99.90
22161;DHT22;49035;48.812;11.762;2022-11-04T07:54:05;8.70;99.90
22161;DHT22;49035;48.812;11.762;2022-11-04T07:56:31;8.60;99.90
22161;DHT22;49035;48.812;11.762;2022-11-04T07:58:57;8.60;99.90
22161;DHT22;49035;48.812;11.762;2022-11-04T08:01:22;8.60;99.90
22161;DHT22;49035;48.812;11.762;2022-11-04T08:03:49;8.60;99.90
22161;DHT22;49035;48.812;11.762;2022-11-04T08:06:17;8.50;99.90
22161;DHT22;49035;48.812;11.762;2022-11-04T08:08:43;8.60;99.90
22161;DHT22;49035;48.812;11.762;2022-11-04T08:11:15;8.50;99.90
22161;DHT22;49035;48.812;11.762;2022-11-04T08:13:41;8.50;99.90
22161;DHT22;49035;48.812;11.762;2022-11-04T08:16:11;8.50;99.90
22161;DHT22;49035;48.812;11.762;2022-11-04T08:18:37;8.50;99.90
22161;DHT22;49035;48.812;11.762;2022-11-04T08:21:03;8.50;99.90
22161;DHT22;49035;48.812;11.762;2022-11-04T08:23:32;8.50;99.90
22161;DHT22;49035;48.812;11.762;2022-11-04T08:25:59;8.40;99.90
22161;DHT22;49035;48.812;11.762;2022-11-04T08:28:26;8.40;99.90
22161;DHT22;49035;48.812;11.762;2022-11-04T08:31:01;8.50;99.90
22161;DHT22;49035;48.812;11.762;2022-11-04T08:33:28;8.40;99.90
22161;DHT22;49035;48.812;11.762;2022-11-04T08:35:59;8.40;99.90
22161;DHT22;49035;48.812;11.762;2022-11-04T08:38:25;8.40;99.90
22161;DHT22;49035;48.812;11.762;2022-11-04T08:40:50;8.50;99.90
22161;DHT22;49035;48.812;11.762;2022-11-04T08:43:17;8.60;99.90
22161;DHT22;49035;48.812;11.762;2022-11-04T08:45:45;8.60;99.90
22161;DHT22;49035;48.812;11.762;2022-11-04T08:48:13;8.70;99.90
22161;DHT22;49035;48.812;11.762;2022-11-04T08:50:41;8.80;99.90
22161;DHT22;49035;48.812;11.762;2022-11-04T08:53:06;8.90;99.90
22161;DHT22;49035;48.812;11.762;2022-11-04T08:55:32;9.20;99.90
22161;DHT22;49035;48.812;11.762;2022-11-04T08:57:59;9.40;99.90
22161;DHT22;49035;48.812;11.762;2022-11-04T09:00:25;9.60;99.90
22161;DHT22;49035;48.812;11.762;2022-11-04T09:02:51;10.00;99.90
22161;DHT22;49035;48.812;11.762;2022-11-04T09:05:17;10.20;99.90
22161;DHT22;49035;48.812;11.762;2022-11-04T09:07:43;10.50;99.90
22161;DHT22;49035;48.812;11.762;2022-11-04T09:10:09;10.60;99.90
22161;DHT22;49035;48.812;11.762;2022-11-04T09:12:36;10.70;99.90
22161;DHT22;49035;48.812;11.762;2022-11-04T09:15:03;10.60;99.90
22161;DHT22;49035;48.812;11.762;2022-11-04T09:17:30;10.40;99.90
22161;DHT22;49035;48.812;11.762;2022-11-04T09:19:56;10.30;99.90
22161;DHT22;49035;48.812;11.762;2022-11-04T09:22:21;10.30;99.90
22161;DHT22;49035;48.812;11.762;2022-11-04T09:24:47;10.30;99.90
22161;DHT22;49035;48.812;11.762;2022-11-04T09:27:13;10.30;99.90
22161;DHT22;49035;48.812;11.762;2022-11-04T09:29:39;10.40;99.90
22161;DHT22;49035;48.812;11.762;2022-11-04T09:32:06;10.30;99.90
22161;DHT22;49035;48.812;11.762;2022-11-04T09:34:31;10.40;99.90
22161;DHT22;49035;48.812;11.762;2022-11-04T09:36:57;10.50;99.90
22161;DHT22;49035;48.812;11.762;2022-11-04T09:39:23;10.50;99.90
22161;DHT22;49035;48.812;11.762;2022-11-04T09:44:46;10.60;99.90
22161;DHT22;49035;48.812;11.762;2022-11-04T09:47:13;10.20;99.90
22161;DHT22;49035;48.812;11.762;2022-11-04T09:49:43;10.10;99.90
22161;DHT22;49035;48.812;11.762;2022-11-04T09:52:20;10.10;99.90
22161;DHT22;49035;48.812;11.762;2022-11-04T09:57:23;10.20;99.90
22161;DHT22;49035;48.812;11.762;2022-11-04T09:59:49;10.20;99.90
22161;DHT22;49035;48.812;11.762;2022-11-04T10:04:57;10.30;99.90
22161;DHT22;49035;48.812;11.762;2022-11-04T10:16:02;9.90;99.90
22161;DHT22;49035;48.812;11.762;2022-11-04T10:24:23;9.70;99.90
22161;DHT22;49035;48.812;11.762;2022-11-04T10:26:53;9.70;99.90
22161;DHT22;49035;48.812;11.762;2022-11-04T10:31:54;9.70;99.90
22161;DHT22;49035;48.812;11.762;2022-11-04T10:37:29;9.60;99.90
22161;DHT22;49035;48.812;11.762;2022-11-04T10:40:27;9.70;99.90
22161;DHT22;49035;48.812;11.762;2022-11-04T10:42:51;9.80;99.90
22161;DHT22;49035;48.812;11.762;2022-11-04T10:45:20;9.90;99.90
22161;DHT22;49035;48.812;11.762;2022-11-04T10:48:10;10.00;99.90
22161;DHT22;49035;48.812;11.762;2022-11-04T10:50:54;10.10;99.90
22161;DHT22;49035;48.812;11.762;2022-11-04T10:53:31;10.20;99.90
22161;DHT22;49035;48.812;11.762;2022-11-04T10:58:44;10.50;99.90
22161;DHT22;49035;48.812;11.762;2022-11-04T11:01:29;10.50;99.90
22161;DHT22;49035;48.812;11.762;2022-11-04T11:03:56;10.60;99.90
22161;DHT22;49035;48.812;11.762;2022-11-04T11:11:47;10.50;99.90
22161;DHT22;49035;48.812;11.762;2022-11-04T11:14:33;10.50;99.90
22161;DHT22;49035;48.812;11.762;2022-11-04T11:17:19;10.50;99.90
22161;DHT22;49035;48.812;11.762;2022-11-04T11:19:55;10.50;99.90
22161;DHT22;49035;48.812;11.762;2022-11-04T11:22:37;10.60;99.90
22161;DHT22;49035;48.812;11.762;2022-11-04T11:27:50;10.70;99.90
22161;DHT22;49035;48.812;11.762;2022-11-04T11:30:52;10.80;99.90
22161;DHT22;49035;48.812;11.762;2022-11-04T11:33:50;11.00;99.90
22161;DHT22;49035;48.812;11.762;2022-11-04T11:36:30;11.30;99.90
22161;DHT22;49035;48.812;11.762;2022-11-04T11:39:23;11.50;99.90
22161;DHT22;49035;48.812;11.762;2022-11-04T11:42:05;11.50;99.90
22161;DHT22;49035;48.812;11.762;2022-11-04T11:47:24;11.70;99.90
22161;DHT22;49035;48.812;11.762;2022-11-04T11:52:42;11.90;99.90
22161;DHT22;49035;48.812;11.762;2022-11-04T11:55:33;11.60;99.90
22161;DHT22;49035;48.812;11.762;2022-11-04T11:58:09;11.60;99.90
22161;DHT22;49035;48.812;11.762;2022-11-04T12:00:44;11.70;99.90
22161;DHT22;49035;48.812;11.762;2022-11-04T12:03:16;11.80;99.90
22161;DHT22;49035;48.812;11.762;2022-11-04T12:05:54;11.80;99.90
22161;DHT22;49035;48.812;11.762;2022-11-04T12:30:15;11.00;99.90
22161;DHT22;49035;48.812;11.762;2022-11-04T12:32:58;10.80;99.90
22161;DHT22;49035;48.812;11.762;2022-11-04T12:40:42;10.70;99.90
22161;DHT22;49035;48.812;11.762;2022-11-04T12:43:25;10.70;99.90
22161;DHT22;49035;48.812;11.762;2022-11-04T13:07:57;10.70;99.90
22161;DHT22;49035;48.812;11.762;2022-11-04T13:10:33;10.80;99.90
22161;DHT22;49035;48.812;11.762;2022-11-04T13:13:03;10.90;99.90
22161;DHT22;49035;48.812;11.762;2022-11-04T13:15:35;11.00;99.90
22161;DHT22;49035;48.812;11.762;2022-11-04T13:18:06;11.00;99.90
22161;DHT22;49035;48.812;11.762;2022-11-04T13:20:35;10.90;99.90
22161;DHT22;49035;48.812;11.762;2022-11-04T13:23:06;10.90;99.90
22161;DHT22;49035;48.812;11.762;2022-11-04T13:25:51;10.90;99.90
22161;DHT22;49035;48.812;11.762;2022-11-04T13:28:19;10.90;99.90
22161;DHT22;49035;48.812;11.762;2022-11-04T13:31:07;10.90;99.90
22161;DHT22;49035;48.812;11.762;2022-11-04T13:33:54;11.10;99.90
22161;DHT22;49035;48.812;11.762;2022-11-04T13:36:45;11.20;99.90
22161;DHT22;49035;48.812;11.762;2022-11-04T13:44:36;11.20;99.90
22161;DHT22;49035;48.812;11.762;2022-11-04T13:47:10;11.10;99.90
22161;DHT22;49035;48.812;11.762;2022-11-04T13:49:37;11.00;99.90
22161;DHT22;49035;48.812;11.762;2022-11-04T13:52:11;10.90;99.90
22161;DHT22;49035;48.812;11.762;2022-11-04T13:57:23;10.80;99.90
22161;DHT22;49035;48.812;11.762;2022-11-04T14:02:51;10.70;99.90
22161;DHT22;49035;48.812;11.762;2022-11-04T14:18:49;10.50;99.90
22161;DHT22;49035;48.812;11.762;2022-11-04T14:21:26;10.50;99.90
22161;DHT22;49035;48.812;11.762;2022-11-04T14:24:11;10.50;99.90
22161;DHT22;49035;48.812;11.762;2022-11-04T14:26:45;10.40;99.90
22161;DHT22;49035;48.812;11.762;2022-11-04T14:29:18;10.40;99.90
22161;DHT22;49035;48.812;11.762;2022-11-04T14:32:05;10.30;99.90
22161;DHT22;49035;48.812;11.762;2022-11-04T14:34:36;10.30;99.90
22161;DHT22;49035;48.812;11.762;2022-11-04T14:37:25;10.20;99.90
22161;DHT22;49035;48.812;11.762;2022-11-04T14:39:57;10.20;99.90
22161;DHT22;49035;48.812;11.762;2022-11-04T14:42:48;10.10;99.90
22161;DHT22;49035;48.812;11.762;2022-11-04T14:45:19;10.10;99.90
22161;DHT22;49035;48.812;11.762;2022-11-04T14:47:48;10.10;99.90
22161;DHT22;49035;48.812;11.762;2022-11-04T14:50:22;10.00;99.90
22161;DHT22;49035;48.812;11.762;2022-11-04T14:52:58;10.00;99.90
22161;DHT22;49035;48.812;11.762;2022-11-04T14:55:29;9.90;99.90
22161;DHT22;49035;48.812;11.762;2022-11-04T14:58:21;9.80;99.90
22161;DHT22;49035;48.812;11.762;2022-11-04T15:05:49;9.60;99.90
22161;DHT22;49035;48.812;11.762;2022-11-04T15:10:58;9.40;99.90
22161;DHT22;49035;48.812;11.762;2022-11-04T15:13:24;9.40;99.90
22161;DHT22;49035;48.812;11.762;2022-11-04T15:15:52;9.30;99.90
22161;DHT22;49035;48.812;11.762;2022-11-04T15:18:25;9.20;99.90
22161;DHT22;49035;48.812;11.762;2022-11-04T15:20:59;9.10;99.90
22161;DHT22;49035;48.812;11.762;2022-11-04T15:23:29;9.10;99.90
22161;DHT22;49035;48.812;11.762;2022-11-04T15:25:57;9.00;99.90
22161;DHT22;49035;48.812;11.762;2022-11-04T15:28:37;8.90;99.90
22161;DHT22;49035;48.812;11.762;2022-11-04T15:33:37;8.80;99.90
22161;DHT22;49035;48.812;11.762;2022-11-04T15:36:03;8.70;99.90
22161;DHT22;49035;48.812;11.762;2022-11-04T15:38:30;8.60;99.90
22161;DHT22;49035;48.812;11.762;2022-11-04T15:40:57;8.50;99.90
22161;DHT22;49035;48.812;11.762;2022-11-04T15:43:44;8.50;99.90
22161;DHT22;49035;48.812;11.762;2022-11-04T15:46:16;8.40;99.90
22161;DHT22;49035;48.812;11.762;2022-11-04T15:48:59;8.40;99.90
22161;DHT22;49035;48.812;11.762;2022-11-04T15:51:27;8.40;99.90
22161;DHT22;49035;48.812;11.762;2022-11-04T15:54:20;8.30;99.90
22161;DHT22;49035;48.812;11.762;2022-11-04T15:56:55;8.30;99.90
22161;DHT22;49035;48.812;11.762;2022-11-04T15:59:30;8.20;99.90
22161;DHT22;49035;48.812;11.762;2022-11-04T16:01:57;8.10;99.90
22161;DHT22;49035;48.812;11.762;2022-11-04T16:04:24;8.10;99.90
22161;DHT22;49035;48.812;11.762;2022-11-04T16:07:19;8.10;99.90
22161;DHT22;49035;48.812;11.762;2022-11-04T16:09:51;8.00;99.90
22161;DHT22;49035;48.812;11.762;2022-11-04T16:12:36;7.90;99.90
22161;DHT22;49035;48.812;11.762;2022-11-04T16:15:02;8.00;99.90
22161;DHT22;49035;48.812;11.762;2022-11-04T16:17:29;8.00;99.90
22161;DHT22;49035;48.812;11.762;2022-11-04T16:19:58;7.90;99.90
22161;DHT22;49035;48.812;11.762;2022-11-04T16:22:29;7.90;99.90
22161;DHT22;49035;48.812;11.762;2022-11-04T16:24:55;7.90;99.90
22161;DHT22;49035;48.812;11.762;2022-11-04T16:27:22;8.00;99.90
22161;DHT22;49035;48.812;11.762;2022-11-04T16:32:30;7.90;99.90
22161;DHT22;49035;48.812;11.762;2022-11-04T16:35:11;7.90;99.90
22161;DHT22;49035;48.812;11.762;2022-11-04T16:37:38;7.90;99.90
22161;DHT22;49035;48.812;11.762;2022-11-04T16:40:04;7.80;99.90
22161;DHT22;49035;48.812;11.762;2022-11-04T16:42:31;7.80;99.90
22161;DHT22;49035;48.812;11.762;2022-11-04T16:45:00;7.80;99.90
22161;DHT22;49035;48.812;11.762;2022-11-04T16:47:27;7.90;99.90
22161;DHT22;49035;48.812;11.762;2022-11-04T16:49:59;7.90;99.90
22161;DHT22;49035;48.812;11.762;2022-11-04T16:52:27;7.90;99.90
22161;DHT22;49035;48.812;11.762;2022-11-04T16:54:54;7.80;99.90
22161;DHT22;49035;48.812;11.762;2022-11-04T16:57:21;7.80;99.90
22161;DHT22;49035;48.812;11.762;2022-11-04T16:59:48;7.80;99.90
22161;DHT22;49035;48.812;11.762;2022-11-04T17:02:19;7.70;99.90
22161;DHT22;49035;48.812;11.762;2022-11-04T17:04:47;7.70;99.90
22161;DHT22;49035;48.812;11.762;2022-11-04T17:07:13;7.70;99.90
22161;DHT22;49035;48.812;11.762;2022-11-04T17:09:38;7.70;99.90
22161;DHT22;49035;48.812;11.762;2022-11-04T17:12:04;7.70;99.90
22161;DHT22;49035;48.812;11.762;2022-11-04T17:14:30;7.60;99.90
22161;DHT22;49035;48.812;11.762;2022-11-04T17:16:56;7.60;99.90
22161;DHT22;49035;48.812;11.762;2022-11-04T17:19:21;7.60;99.90
22161;DHT22;49035;48.812;11.762;2022-11-04T17:21:47;7.60;99.90
22161;DHT22;49035;48.812;11.762;2022-11-04T17:24:13;7.50;99.90
22161;DHT22;49035;48.812;11.762;2022-11-04T17:26:39;7.50;99.90
22161;DHT22;49035;48.812;11.762;2022-11-04T17:29:04;7.50;99.90
22161;DHT22;49035;48.812;11.762;2022-11-04T17:31:30;7.40;99.90
22161;DHT22;49035;48.812;11.762;2022-11-04T17:33:55;7.40;99.90
22161;DHT22;49035;48.812;11.762;2022-11-04T17:36:21;7.40;99.90
22161;DHT22;49035;48.812;11.762;2022-11-04T17:38:47;7.30;99.90
22161;DHT22;49035;48.812;11.762;2022-11-04T17:41:13;7.30;99.90
22161;DHT22;49035;48.812;11.762;2022-11-04T17:43:57;7.30;99.90
22161;DHT22;49035;48.812;11.762;2022-11-04T17:46:29;7.30;99.90
22161;DHT22;49035;48.812;11.762;2022-11-04T17:48:59;7.30;99.90
22161;DHT22;49035;48.812;11.762;2022-11-04T17:51:25;7.20;99.90
22161;DHT22;49035;48.812;11.762;2022-11-04T17:53:51;7.20;99.90
22161;DHT22;49035;48.812;11.762;2022-11-04T17:56:19;7.30;99.90
22161;DHT22;49035;48.812;11.762;2022-11-04T17:58:45;7.30;99.90
22161;DHT22;49035;48.812;11.762;2022-11-04T18:01:14;7.30;99.90
22161;DHT22;49035;48.812;11.762;2022-11-04T18:03:40;7.30;99.90
22161;DHT22;49035;48.812;11.762;2022-11-04T18:06:07;7.30;99.90
22161;DHT22;49035;48.812;11.762;2022-11-04T18:08:33;7.30;99.90
22161;DHT22;49035;48.812;11.762;2022-11-04T18:11:05;7.30;99.90
22161;DHT22;49035;48.812;11.762;2022-11-04T18:13:31;7.30;99.90
22161;DHT22;49035;48.812;11.762;2022-11-04T18:15:56;7.30;99.90
22161;DHT22;49035;48.812;11.762;2022-11-04T18:18:22;7.30;99.90
22161;DHT22;49035;48.812;11.762;2022-11-04T18:20:48;7.40;99.90
22161;DHT22;49035;48.812;11.762;2022-11-04T18:23:14;7.40;99.90
22161;DHT22;49035;48.812;11.762;2022-11-04T18:25:41;7.50;99.90
22161;DHT22;49035;48.812;11.762;2022-11-04T18:28:08;7.50;99.90
22161;DHT22;49035;48.812;11.762;2022-11-04T18:30:37;7.50;99.90
22161;DHT22;49035;48.812;11.762;2022-11-04T18:33:02;7.50;99.90